Time;durP1;ratioP1;P1;durP2;ratioP2;P2;SDS_P1;SDS_P2;PMS_P1;PMS_P2;Temp;Humidity;BMP_temperature;BMP_pressure;BME280_temperature;BME280_humidity;BME280_pressure;Samples;Min_cycle;Max_cycle;Signal;HPM_P1;HPM_P2
2022/02/11 00:01:03;;;;;;;17.17;1.98;;;3.10;99.90;;;;;;5029794;28;20045;-69
2022/02/11 00:09:06;;;;;;;16.92;2.00;;;3.00;99.90;;;;;;5017424;28;20049;-69
2022/02/11 00:11:37;;;;;;;13.20;2.10;;;2.90;99.90;;;;;;5026778;28;20049;-70
2022/02/11 00:14:05;;;;;;;13.95;2.35;;;2.90;99.90;;;;;;5023040;28;20056;-69
2022/02/11 00:16:31;;;;;;;11.43;1.63;;;2.90;99.90;;;;;;5025595;28;20041;-69
2022/02/11 00:19:00;;;;;;;12.13;2.00;;;2.80;99.90;;;;;;5026104;28;20145;-69
2022/02/11 00:21:28;;;;;;;14.05;2.28;;;2.80;99.90;;;;;;5011833;28;20096;-69
2022/02/11 00:23:55;;;;;;;15.25;2.00;;;2.80;99.90;;;;;;5035455;28;20049;-69
2022/02/11 00:26:21;;;;;;;9.25;1.30;;;2.70;99.90;;;;;;5028319;28;20391;-69
2022/02/11 00:34:12;;;;;;;15.20;2.15;;;2.70;99.90;;;;;;5033427;28;20091;-70
2022/02/11 00:36:50;;;;;;;23.60;2.13;;;2.70;99.90;;;;;;5032446;28;20065;-69
2022/02/11 00:45:38;;;;;;;6.35;1.85;;;2.90;99.90;;;;;;5045530;28;20071;-69
2022/02/11 01:06:09;;;;;;;7.43;1.67;;;3.00;99.90;;;;;;5052575;28;20049;-69
2022/02/11 01:08:36;;;;;;;21.38;2.60;;;3.00;99.90;;;;;;5027594;28;20522;-70
2022/02/11 01:11:02;;;;;;;12.55;1.83;;;3.00;99.90;;;;;;5035040;28;20324;-69
2022/02/11 01:13:28;;;;;;;14.18;2.00;;;2.90;99.90;;;;;;5027650;28;20076;-69
2022/02/11 01:16:02;;;;;;;10.75;1.88;;;3.00;99.90;;;;;;5023917;28;20380;-70
2022/02/11 01:18:28;;;;;;;13.80;2.00;;;2.90;99.90;;;;;;5040786;28;20037;-69
2022/02/11 01:21:00;;;;;;;11.68;2.25;;;3.00;99.90;;;;;;5028456;28;20049;-69
2022/02/11 01:31:21;;;;;;;13.02;2.35;;;3.10;99.90;;;;;;5024018;28;20136;-70
2022/02/11 01:34:16;;;;;;;19.40;2.55;;;3.00;99.90;;;;;;5046950;28;20047;-70
2022/02/11 01:49:36;;;;;;;12.63;1.95;;;3.10;99.90;;;;;;5041615;28;20055;-69
2022/02/11 01:53:00;;;;;;;11.15;1.98;;;3.10;99.90;;;;;;5030228;28;20579;-70
2022/02/11 02:16:39;;;;;;;17.42;2.30;;;3.70;99.90;;;;;;5048902;28;20091;-69
2022/02/11 02:37:43;;;;;;;17.52;2.45;;;3.90;99.90;;;;;;5035500;28;20063;-68
2022/02/11 02:56:46;;;;;;;16.55;2.45;;;3.90;99.90;;;;;;5047088;28;20045;-69
2022/02/11 02:59:53;;;;;;;13.65;2.42;;;3.90;99.90;;;;;;5031349;28;20507;-69
2022/02/11 03:50:03;;;;;;;0.95;0.60;;;4.70;99.90;;;;;;5038010;28;20060;-68
2022/02/11 03:55:51;;;;;;;28.60;4.53;;;4.80;99.90;;;;;;5028691;28;20136;-70
2022/02/11 03:59:23;;;;;;;44.45;5.65;;;4.80;99.90;;;;;;5037216;28;20522;-70
2022/02/11 05:00:00;;;;;;;17.88;2.55;;;5.00;99.90;;;;;;5013130;28;20053;-70
2022/02/11 05:02:30;;;;;;;27.30;4.35;;;5.10;99.90;;;;;;5033921;28;20041;-70
2022/02/11 05:04:56;;;;;;;36.00;6.00;;;5.10;99.90;;;;;;5039909;28;20132;-69
2022/02/11 05:07:21;;;;;;;37.03;6.93;;;5.10;99.90;;;;;;5031190;28;20295;-69
2022/02/11 05:09:48;;;;;;;48.38;9.27;;;5.10;99.90;;;;;;5028437;28;20041;-70
2022/02/11 05:12:14;;;;;;;51.72;8.52;;;5.10;99.90;;;;;;5027732;28;20050;-69
2022/02/11 05:14:39;;;;;;;37.67;6.80;;;5.10;99.90;;;;;;5028771;28;20395;-69
2022/02/11 05:17:05;;;;;;;37.92;6.18;;;5.10;99.90;;;;;;5037324;28;20048;-70
2022/02/11 05:19:31;;;;;;;38.00;7.75;;;5.10;99.90;;;;;;5031168;28;20156;-70
2022/02/11 05:21:56;;;;;;;32.60;7.45;;;5.10;99.90;;;;;;5027703;28;20058;-70
2022/02/11 05:24:22;;;;;;;40.60;7.50;;;5.10;99.90;;;;;;5042098;28;20044;-70
2022/02/11 05:26:48;;;;;;;33.53;5.70;;;5.10;99.90;;;;;;5027448;28;20036;-70
2022/02/11 05:29:14;;;;;;;36.75;7.72;;;5.10;99.90;;;;;;5019036;28;20052;-70
2022/02/11 05:31:42;;;;;;;45.80;7.78;;;5.10;99.90;;;;;;5052869;28;20043;-70
2022/02/11 05:34:08;;;;;;;31.17;6.35;;;5.10;99.90;;;;;;5035852;28;20057;-70
2022/02/11 05:36:34;;;;;;;24.98;5.80;;;5.10;99.90;;;;;;5028550;28;20507;-70
2022/02/11 05:38:59;;;;;;;24.90;4.32;;;5.20;99.90;;;;;;5010305;28;20077;-70
2022/02/11 05:41:25;;;;;;;36.53;7.32;;;5.10;99.90;;;;;;5029948;28;20033;-70
2022/02/11 05:43:51;;;;;;;43.50;6.93;;;5.20;99.90;;;;;;5026724;28;20041;-70
2022/02/11 05:46:17;;;;;;;34.13;7.07;;;5.20;99.90;;;;;;5041528;28;20344;-70
2022/02/11 05:48:43;;;;;;;29.13;4.88;;;5.20;99.90;;;;;;5048149;28;20527;-70
2022/02/11 05:51:10;;;;;;;42.63;8.02;;;5.20;99.90;;;;;;5036039;28;20067;-70
2022/02/11 05:53:35;;;;;;;34.97;6.50;;;5.20;99.90;;;;;;5031863;28;20152;-70
2022/02/11 05:56:02;;;;;;;42.92;9.02;;;5.20;99.90;;;;;;5030292;28;20119;-70
2022/02/11 05:58:28;;;;;;;62.25;10.85;;;5.30;99.90;;;;;;5032007;28;20503;-70
2022/02/11 06:00:54;;;;;;;67.18;15.75;;;5.30;99.90;;;;;;5018030;28;20049;-70
2022/02/11 06:03:20;;;;;;;42.75;6.55;;;5.40;99.90;;;;;;5033772;28;20412;-70
2022/02/11 06:05:46;;;;;;;54.58;11.18;;;5.40;99.90;;;;;;5031342;28;20048;-70
2022/02/11 06:08:11;;;;;;;57.13;14.35;;;5.40;99.90;;;;;;5035931;28;20057;-70
2022/02/11 06:10:38;;;;;;;42.55;9.43;;;5.50;99.90;;;;;;5011211;28;20033;-70
2022/02/11 06:13:03;;;;;;;52.33;11.05;;;5.50;99.90;;;;;;5029319;28;20052;-70
2022/02/11 06:15:29;;;;;;;50.83;10.73;;;5.40;99.90;;;;;;5031537;28;20457;-70
2022/02/11 06:17:55;;;;;;;37.20;8.90;;;5.40;99.90;;;;;;5031868;28;20072;-69
2022/02/11 06:20:27;;;;;;;69.10;16.75;;;5.40;99.90;;;;;;5036434;28;20037;-70
2022/02/11 06:22:56;;;;;;;72.75;20.73;;;5.40;99.90;;;;;;5035141;28;20055;-70
2022/02/11 06:25:24;;;;;;;82.00;14.90;;;5.30;99.90;;;;;;5051396;28;20498;-70
2022/02/11 06:27:50;;;;;;;67.25;12.43;;;5.30;99.90;;;;;;5051409;28;20040;-70
2022/02/11 06:30:16;;;;;;;48.63;8.13;;;5.20;99.90;;;;;;5034868;28;20052;-70
2022/02/11 06:32:41;;;;;;;46.45;7.05;;;5.20;99.90;;;;;;5031059;28;20053;-70
2022/02/11 06:35:11;;;;;;;43.20;6.63;;;5.20;99.90;;;;;;5046431;28;20049;-70
2022/02/11 06:37:37;;;;;;;36.10;5.55;;;5.20;99.90;;;;;;5037690;28;20056;-70
2022/02/11 06:40:03;;;;;;;40.72;6.93;;;5.20;99.90;;;;;;5045112;28;20084;-70
2022/02/11 06:42:29;;;;;;;28.48;4.47;;;5.20;99.90;;;;;;5047782;28;20095;-70
2022/02/11 06:44:55;;;;;;;41.15;5.95;;;5.30;99.90;;;;;;5045716;28;20103;-70
2022/02/11 06:47:21;;;;;;;35.78;5.13;;;5.30;99.90;;;;;;5030492;28;20052;-70
2022/02/11 06:49:47;;;;;;;45.83;7.25;;;5.30;99.90;;;;;;5031355;28;20045;-70
2022/02/11 06:52:13;;;;;;;42.78;5.10;;;5.30;99.90;;;;;;5029759;28;20049;-70
2022/02/11 06:54:39;;;;;;;44.20;6.50;;;5.30;99.90;;;;;;5048042;28;20076;-70
2022/02/11 06:57:05;;;;;;;39.35;6.85;;;5.40;99.90;;;;;;5046002;28;20503;-70
2022/02/11 06:59:30;;;;;;;50.78;6.70;;;5.40;99.90;;;;;;5048851;28;20123;-70
2022/02/11 07:01:57;;;;;;;40.33;5.75;;;5.40;99.90;;;;;;5039257;28;20096;-70
2022/02/11 07:04:22;;;;;;;32.78;5.97;;;5.40;99.90;;;;;;5047304;28;20053;-70
2022/02/11 07:06:48;;;;;;;36.25;6.65;;;5.30;99.90;;;;;;5047462;28;20045;-70
2022/02/11 07:09:14;;;;;;;27.20;6.55;;;5.40;99.90;;;;;;5043547;28;20059;-70
2022/02/11 07:11:40;;;;;;;32.45;5.45;;;5.40;99.90;;;;;;5044401;28;20057;-70
2022/02/11 07:14:06;;;;;;;31.67;6.03;;;5.30;99.90;;;;;;5027421;28;20511;-70
2022/02/11 07:16:31;;;;;;;29.77;5.97;;;5.30;99.90;;;;;;5027285;28;20652;-70
2022/02/11 07:18:57;;;;;;;36.28;5.40;;;5.20;99.90;;;;;;5026061;28;20046;-71
2022/02/11 07:21:23;;;;;;;39.10;5.82;;;5.20;99.90;;;;;;5030954;28;20179;-70
2022/02/11 07:23:48;;;;;;;29.63;5.32;;;5.20;99.90;;;;;;5027280;28;20096;-70
2022/02/11 07:26:14;;;;;;;32.50;5.07;;;5.10;99.90;;;;;;5026749;28;20050;-70
2022/02/11 07:28:40;;;;;;;39.67;6.57;;;5.10;99.90;;;;;;5019260;28;20045;-70
2022/02/11 07:31:06;;;;;;;36.50;5.97;;;5.20;99.90;;;;;;5039783;28;20053;-70
2022/02/11 07:33:31;;;;;;;36.03;6.93;;;5.20;99.90;;;;;;5041302;28;20534;-70
2022/02/11 07:35:57;;;;;;;25.00;5.15;;;5.10;99.90;;;;;;5023160;28;20399;-71
2022/02/11 07:38:23;;;;;;;30.45;3.60;;;5.10;99.90;;;;;;5037814;28;20085;-71
2022/02/11 07:40:49;;;;;;;32.00;4.88;;;5.10;99.90;;;;;;5024322;28;20540;-70
2022/02/11 07:43:14;;;;;;;34.92;5.70;;;5.10;99.90;;;;;;5037288;28;20056;-71
2022/02/11 07:45:40;;;;;;;30.83;4.90;;;5.10;99.90;;;;;;5026793;28;20080;-70
2022/02/11 07:48:07;;;;;;;26.42;4.05;;;5.10;99.90;;;;;;5029029;28;20114;-70
2022/02/11 07:50:33;;;;;;;34.47;5.68;;;5.10;99.90;;;;;;5030237;28;20143;-71
2022/02/11 07:52:58;;;;;;;31.42;5.78;;;5.10;99.90;;;;;;5045125;28;20092;-71
2022/02/11 07:55:24;;;;;;;32.70;4.70;;;5.10;99.90;;;;;;5046780;28;20044;-70
2022/02/11 07:57:50;;;;;;;24.05;4.63;;;5.00;99.90;;;;;;5045008;28;20080;-71
2022/02/11 08:00:16;;;;;;;35.70;5.35;;;5.10;99.90;;;;;;5046929;28;20048;-71
2022/02/11 08:02:43;;;;;;;25.95;4.32;;;5.00;99.90;;;;;;5044541;28;20045;-71
2022/02/11 08:05:09;;;;;;;27.50;5.57;;;5.00;99.90;;;;;;5045121;28;20090;-71
2022/02/11 08:07:35;;;;;;;23.42;4.43;;;5.10;99.90;;;;;;5046565;28;20112;-71
2022/02/11 08:10:02;;;;;;;33.28;4.57;;;5.00;99.90;;;;;;5036541;28;20538;-71
2022/02/11 08:12:29;;;;;;;32.10;5.32;;;5.00;99.90;;;;;;5026520;28;20094;-71
2022/02/11 08:14:55;;;;;;;33.45;5.20;;;5.10;99.90;;;;;;5016438;28;20203;-71
2022/02/11 08:17:20;;;;;;;35.40;5.78;;;5.20;99.90;;;;;;5039248;28;20124;-71
2022/02/11 08:19:46;;;;;;;22.15;3.95;;;5.20;99.90;;;;;;5026771;28;20500;-71
2022/02/11 08:22:12;;;;;;;27.70;4.68;;;5.20;99.90;;;;;;5045322;28;20041;-71
2022/02/11 08:24:38;;;;;;;36.35;5.85;;;5.30;99.90;;;;;;5045595;28;20052;-71
2022/02/11 08:27:03;;;;;;;29.45;4.60;;;5.30;99.90;;;;;;5028216;28;20692;-71
2022/02/11 08:29:31;;;;;;;24.45;4.82;;;5.30;99.90;;;;;;5046217;28;20053;-71
2022/02/11 08:31:58;;;;;;;24.48;4.95;;;5.30;99.90;;;;;;5044040;28;20060;-71
2022/02/11 08:34:24;;;;;;;30.27;5.07;;;5.30;99.90;;;;;;5047234;28;20107;-71
2022/02/11 08:36:50;;;;;;;35.85;4.88;;;5.30;99.90;;;;;;5044250;28;20836;-71
2022/02/11 08:39:17;;;;;;;28.23;5.22;;;5.30;99.90;;;;;;5039816;28;20557;-71
2022/02/11 08:41:43;;;;;;;20.67;4.35;;;5.30;99.90;;;;;;5029456;28;20050;-71
2022/02/11 08:44:09;;;;;;;18.55;3.97;;;5.30;99.90;;;;;;5026096;28;20139;-71
2022/02/11 08:46:35;;;;;;;35.42;5.97;;;5.30;99.90;;;;;;5046130;28;20049;-71
2022/02/11 08:49:01;;;;;;;29.45;6.10;;;5.30;99.90;;;;;;5044329;28;20590;-72
2022/02/11 08:51:29;;;;;;;23.40;4.85;;;5.30;99.90;;;;;;5045773;28;20055;-71
2022/02/11 08:53:56;;;;;;;29.35;4.78;;;5.20;99.90;;;;;;5042764;28;20084;-71
2022/02/11 08:56:23;;;;;;;25.67;4.63;;;5.20;99.90;;;;;;5045713;28;20041;-71
2022/02/11 08:58:48;;;;;;;17.83;3.95;;;5.20;99.90;;;;;;5043681;28;20098;-72
2022/02/11 09:01:14;;;;;;;17.15;3.45;;;5.10;99.90;;;;;;5042127;28;20048;-71
2022/02/11 09:03:40;;;;;;;17.48;3.03;;;4.80;99.90;;;;;;5041143;28;20052;-71
2022/02/11 09:06:06;;;;;;;28.60;4.28;;;4.80;99.90;;;;;;5027621;28;20041;-71
2022/02/11 09:08:34;;;;;;;18.75;4.47;;;4.90;99.90;;;;;;5045484;28;20088;-71
2022/02/11 09:11:01;;;;;;;24.77;4.28;;;5.00;99.90;;;;;;5026984;28;20036;-71
2022/02/11 09:13:27;;;;;;;25.55;4.45;;;5.10;99.90;;;;;;5027083;28;20435;-71
2022/02/11 09:15:56;;;;;;;26.33;4.32;;;5.20;99.90;;;;;;5037279;28;20209;-71
2022/02/11 09:18:23;;;;;;;29.42;5.65;;;5.30;99.90;;;;;;5030840;28;20393;-71
2022/02/11 09:20:49;;;;;;;22.67;4.53;;;5.40;99.90;;;;;;5032337;28;20045;-71
2022/02/11 09:23:17;;;;;;;31.15;6.38;;;5.40;99.90;;;;;;5024053;28;20510;-71
2022/02/11 09:25:43;;;;;;;27.98;4.38;;;5.50;99.90;;;;;;5008754;28;20050;-71
2022/02/11 09:28:09;;;;;;;36.00;4.95;;;5.50;99.90;;;;;;5025407;28;20114;-71
2022/02/11 09:30:34;;;;;;;24.05;4.82;;;5.50;99.90;;;;;;5044687;28;20523;-67
2022/02/11 09:33:00;;;;;;;27.60;5.20;;;5.70;99.90;;;;;;5028011;28;20088;-74
2022/02/11 09:35:30;;;;;;;25.33;4.90;;;5.70;99.90;;;;;;5017117;28;20055;-74
2022/02/11 09:37:58;;;;;;;24.23;4.07;;;5.70;99.90;;;;;;5028671;28;20084;-75
2022/02/11 09:40:23;;;;;;;29.80;5.45;;;5.70;99.90;;;;;;5014986;28;20464;-74
2022/02/11 09:42:53;;;;;;;35.15;6.72;;;5.80;99.90;;;;;;5006147;28;20072;-74
2022/02/11 09:45:20;;;;;;;40.72;5.53;;;5.80;99.90;;;;;;5032227;28;20055;-74
2022/02/11 09:47:47;;;;;;;41.70;5.57;;;5.80;99.90;;;;;;5045431;28;20052;-74
2022/02/11 09:50:13;;;;;;;29.02;5.28;;;5.80;99.90;;;;;;5044402;28;20466;-74
2022/02/11 09:52:47;;;;;;;45.75;6.22;;;5.10;99.90;;;;;;5046010;28;20029;-75
2022/02/11 09:58:06;;;;;;;35.15;4.32;;;3.90;99.90;;;;;;5020061;28;20049;-74
2022/02/11 10:00:34;;;;;;;27.75;4.70;;;3.90;99.90;;;;;;5035900;28;20429;-75
2022/02/11 10:03:15;;;;;;;32.75;5.22;;;4.10;99.90;;;;;;5034188;28;20586;-75
2022/02/11 10:05:41;;;;;;;28.98;4.97;;;4.10;99.90;;;;;;5048504;28;20060;-75
2022/02/11 10:08:07;;;;;;;33.70;6.03;;;4.40;99.90;;;;;;5047049;28;20036;-75
2022/02/11 10:10:39;;;;;;;40.47;6.90;;;4.50;99.90;;;;;;5029336;28;20042;-74
2022/02/11 10:13:13;;;;;;;34.30;5.35;;;4.50;99.90;;;;;;5019401;28;20060;-75
2022/02/11 10:15:43;;;;;;;40.47;5.13;;;4.50;99.90;;;;;;5030110;28;20079;-74
2022/02/11 10:18:12;;;;;;;32.05;5.13;;;4.60;99.90;;;;;;5030592;28;20121;-74
2022/02/11 10:20:47;;;;;;;30.88;4.50;;;4.50;99.90;;;;;;5009330;28;20116;-74
2022/02/11 10:23:13;;;;;;;46.35;6.72;;;4.50;99.90;;;;;;5013276;28;20048;-74
2022/02/11 10:25:57;;;;;;;42.15;6.10;;;4.60;99.90;;;;;;5011367;28;20045;-74
2022/02/11 10:28:28;;;;;;;36.53;5.30;;;4.70;99.90;;;;;;5041699;28;20103;-74
2022/02/11 10:31:04;;;;;;;46.65;6.35;;;4.80;99.90;;;;;;5028286;28;20085;-74
2022/02/11 10:34:05;;;;;;;40.80;7.38;;;5.00;99.90;;;;;;5037656;28;20421;-74
2022/02/11 10:36:38;;;;;;;34.45;5.65;;;5.10;99.90;;;;;;5028314;28;20046;-74
2022/02/11 10:39:11;;;;;;;34.08;5.50;;;5.20;99.90;;;;;;5028190;28;20060;-74
2022/02/11 10:41:39;;;;;;;30.52;5.40;;;5.30;99.90;;;;;;5026881;28;20043;-74
2022/02/11 10:44:12;;;;;;;46.95;5.80;;;5.40;99.90;;;;;;5029257;28;20052;-74
2022/02/11 10:46:41;;;;;;;25.27;4.40;;;5.40;99.90;;;;;;5044037;28;20095;-74
2022/02/11 10:49:08;;;;;;;29.45;4.28;;;5.50;99.90;;;;;;5037072;28;20037;-74
2022/02/11 10:51:39;;;;;;;25.70;4.22;;;5.60;99.90;;;;;;5032939;28;20084;-74
2022/02/11 10:54:25;;;;;;;21.45;4.78;;;5.60;99.90;;;;;;5018005;28;20533;-75
2022/02/11 10:56:59;;;;;;;27.90;4.15;;;5.60;99.90;;;;;;5034465;28;20124;-74
2022/02/11 10:59:33;;;;;;;28.50;4.10;;;5.60;99.90;;;;;;5025266;28;20421;-75
2022/02/11 11:02:02;;;;;;;23.35;3.58;;;5.60;99.90;;;;;;5033070;28;20766;-75
2022/02/11 11:04:29;;;;;;;26.67;4.15;;;5.60;99.90;;;;;;5032875;28;20111;-75
2022/02/11 11:06:56;;;;;;;20.92;4.38;;;5.60;99.90;;;;;;5047002;28;20095;-74
2022/02/11 11:09:25;;;;;;;25.58;3.72;;;5.70;99.90;;;;;;5046428;28;20052;-74
2022/02/11 11:11:53;;;;;;;28.45;4.78;;;5.70;99.90;;;;;;5045812;28;20044;-74
2022/02/11 11:14:23;;;;;;;22.67;3.67;;;5.70;99.90;;;;;;5031202;28;20369;-75
2022/02/11 11:16:51;;;;;;;21.20;3.63;;;5.50;99.90;;;;;;5025859;28;20046;-75
2022/02/11 11:19:18;;;;;;;21.42;4.47;;;5.40;99.90;;;;;;5027805;28;20057;-75
2022/02/11 11:21:48;;;;;;;18.10;3.17;;;5.40;99.90;;;;;;5028009;28;20395;-74
2022/02/11 11:24:15;;;;;;;18.48;3.72;;;5.40;99.90;;;;;;5016664;28;20137;-74
2022/02/11 11:26:47;;;;;;;23.88;4.43;;;5.60;99.90;;;;;;5024679;28;20045;-74
2022/02/11 11:29:16;;;;;;;24.38;4.57;;;5.70;99.90;;;;;;5009377;28;20518;-74
2022/02/11 11:31:55;;;;;;;16.33;2.90;;;5.70;99.90;;;;;;5030310;28;20041;-74
2022/02/11 11:34:21;;;;;;;18.95;2.75;;;5.80;99.90;;;;;;5045539;28;20041;-74
2022/02/11 11:36:49;;;;;;;21.60;3.03;;;5.80;99.90;;;;;;5027762;28;20571;-75
2022/02/11 11:39:16;;;;;;;30.40;4.00;;;5.80;99.90;;;;;;5010128;28;20156;-74
2022/02/11 11:41:42;;;;;;;29.48;4.80;;;5.80;99.90;;;;;;5010104;28;20045;-74
2022/02/11 11:44:24;;;;;;;33.53;4.85;;;5.90;99.90;;;;;;5020723;28;20120;-74
2022/02/11 11:47:02;;;;;;;19.85;4.63;;;6.00;99.90;;;;;;5025954;28;20037;-74
2022/02/11 11:49:47;;;;;;;29.55;3.90;;;6.10;99.90;;;;;;5028385;28;20048;-74
2022/02/11 11:52:13;;;;;;;32.15;4.65;;;6.20;99.90;;;;;;5034761;28;20724;-74
2022/02/11 11:54:39;;;;;;;34.25;4.93;;;6.30;99.90;;;;;;5037559;28;20124;-74
2022/02/11 11:57:06;;;;;;;27.95;4.47;;;6.40;99.90;;;;;;5044230;28;20064;-74
2022/02/11 11:59:45;;;;;;;21.13;4.10;;;6.40;99.90;;;;;;5019039;28;20612;-73
2022/02/11 12:02:24;;;;;;;15.67;3.27;;;6.30;99.90;;;;;;5036167;28;20052;-74
2022/02/11 12:04:58;;;;;;;16.58;3.50;;;6.10;99.90;;;;;;5044598;28;20076;-74
2022/02/11 12:07:34;;;;;;;16.05;2.55;;;5.80;99.90;;;;;;5029735;28;20045;-73
2022/02/11 12:10:08;;;;;;;21.55;2.53;;;5.70;99.90;;;;;;5036926;28;20033;-75
2022/02/11 12:12:36;;;;;;;11.88;2.65;;;5.60;99.90;;;;;;5038011;28;20107;-74
2022/02/11 12:15:05;;;;;;;25.02;3.00;;;5.60;99.90;;;;;;5026197;28;20128;-74
2022/02/11 12:17:32;;;;;;;21.20;2.85;;;5.60;99.90;;;;;;5023888;28;20546;-74
2022/02/11 12:19:59;;;;;;;18.33;2.70;;;5.60;99.90;;;;;;5043449;28;20469;-74
2022/02/11 12:22:28;;;;;;;17.92;2.78;;;5.70;99.90;;;;;;5041445;28;20056;-74
2022/02/11 12:27:44;;;;;;;12.75;2.70;;;5.80;99.90;;;;;;5046502;28;20139;-74
2022/02/11 12:30:15;;;;;;;14.55;2.40;;;5.70;97.90;;;;;;5044313;28;20065;-73
2022/02/11 12:32:56;;;;;;;14.73;1.60;;;5.80;99.40;;;;;;5037106;28;20419;-73
2022/02/11 12:35:29;;;;;;;12.30;2.28;;;6.00;98.20;;;;;;5045186;28;20091;-73
2022/02/11 12:37:57;;;;;;;12.02;2.50;;;6.20;97.70;;;;;;5044376;28;20049;-73
2022/02/11 12:40:37;;;;;;;9.27;2.22;;;6.40;95.60;;;;;;5046455;28;20077;-73
2022/02/11 12:43:08;;;;;;;11.30;2.63;;;6.50;92.60;;;;;;5043695;28;20048;-74
2022/02/11 12:45:36;;;;;;;12.27;1.63;;;6.60;86.20;;;;;;5045818;28;20210;-73
2022/02/11 12:48:04;;;;;;;8.15;1.48;;;6.80;96.60;;;;;;5043767;28;20124;-73
2022/02/11 12:50:38;;;;;;;3.60;0.95;;;7.10;96.20;;;;;;5045572;28;20508;-73
2022/02/11 12:53:10;;;;;;;16.88;2.45;;;7.30;90.70;;;;;;5044552;28;20063;-73
2022/02/11 12:55:39;;;;;;;22.90;2.90;;;7.40;95.00;;;;;;5022300;28;20080;-72
2022/02/11 12:58:08;;;;;;;14.00;2.40;;;7.30;91.20;;;;;;5029201;28;20048;-72
2022/02/11 13:00:36;;;;;;;19.90;2.78;;;7.20;90.10;;;;;;5044178;28;20423;-73
2022/02/11 13:03:03;;;;;;;20.60;3.35;;;7.00;92.10;;;;;;5025695;28;20049;-73
2022/02/11 13:05:33;;;;;;;24.67;3.85;;;6.80;99.10;;;;;;5025833;28;20044;-73
2022/02/11 13:08:01;;;;;;;21.23;3.05;;;6.60;99.90;;;;;;5028381;28;20036;-72
2022/02/11 13:10:37;;;;;;;21.60;4.10;;;6.30;99.90;;;;;;5032585;28;20511;-73
2022/02/11 13:13:14;;;;;;;22.70;4.03;;;6.30;99.90;;;;;;5016420;28;20053;-73
2022/02/11 13:15:45;;;;;;;20.42;3.08;;;6.20;99.90;;;;;;5025736;28;20128;-73
2022/02/11 13:18:12;;;;;;;;;;;6.20;99.90;;;;;;5037933;28;20045;-73
2022/02/11 13:20:40;;;;;;;25.27;3.35;;;6.10;99.90;;;;;;5025441;28;19928;-73
2022/02/11 13:23:08;;;;;;;20.48;2.90;;;6.10;99.90;;;;;;5023918;28;20049;-73
2022/02/11 13:25:34;;;;;;;20.05;3.03;;;6.10;99.90;;;;;;5011793;28;20045;-73
2022/02/11 13:28:15;;;;;;;20.50;2.58;;;6.00;99.90;;;;;;5022900;28;20069;-73
2022/02/11 13:30:46;;;;;;;19.35;2.88;;;6.00;98.40;;;;;;5023712;28;20068;-73
2022/02/11 13:33:27;;;;;;;14.85;1.92;;;6.00;99.90;;;;;;5036586;28;20091;-73
2022/02/11 13:35:58;;;;;;;12.80;2.65;;;6.00;99.90;;;;;;5025002;28;20037;-73
2022/02/11 13:38:35;;;;;;;18.10;2.60;;;5.90;99.90;;;;;;5036552;28;20687;-73
2022/02/11 13:41:07;;;;;;;14.75;2.47;;;5.90;99.90;;;;;;5025084;28;20100;-73
2022/02/11 13:44:11;;;;;;;20.00;2.70;;;6.00;98.80;;;;;;5028809;28;20122;-73
2022/02/11 13:46:41;;;;;;;29.08;3.15;;;6.00;99.90;;;;;;5029005;28;20423;-73
2022/02/11 13:49:13;;;;;;;17.88;3.10;;;6.10;99.90;;;;;;5032802;28;20060;-73
2022/02/11 13:51:40;;;;;;;23.65;3.38;;;6.10;99.40;;;;;;5024201;28;20527;-73
2022/02/11 13:54:18;;;;;;;23.15;2.50;;;6.10;99.90;;;;;;5024896;28;20563;-73
2022/02/11 13:56:46;;;;;;;21.33;3.00;;;6.20;99.90;;;;;;5023764;28;20799;-73
2022/02/11 13:59:13;;;;;;;17.80;2.35;;;6.10;96.40;;;;;;5024969;28;20517;-73
2022/02/11 14:01:41;;;;;;;23.67;2.75;;;6.10;99.90;;;;;;5029372;28;20053;-73
2022/02/11 14:04:12;;;;;;;20.25;3.22;;;6.30;98.30;;;;;;5027049;28;20487;-73
2022/02/11 14:06:56;;;;;;;14.48;2.08;;;6.50;94.90;;;;;;5044708;28;20123;-73
2022/02/11 14:09:36;;;;;;;8.32;1.60;;;6.70;93.80;;;;;;5036071;28;20131;-72
2022/02/11 14:12:03;;;;;;;;;;;6.80;93.10;;;;;;5009198;28;20064;-72
2022/02/11 14:14:31;;;;;;;15.38;1.95;;;6.70;83.80;;;;;;5028154;28;20298;-73
2022/02/11 14:17:00;;;;;;;14.10;2.00;;;6.50;88.30;;;;;;5019200;28;20506;-73
2022/02/11 14:19:28;;;;;;;13.20;2.15;;;6.40;89.10;;;;;;5008317;28;20041;-73
2022/02/11 14:21:57;;;;;;;14.85;2.60;;;6.20;87.90;;;;;;5024515;28;20060;-74
2022/02/11 14:24:25;;;;;;;9.02;1.83;;;6.10;94.70;;;;;;5024895;28;20132;-73
2022/02/11 14:26:52;;;;;;;20.00;2.85;;;6.10;88.80;;;;;;5026836;28;20419;-72
2022/02/11 14:29:19;;;;;;;17.77;3.13;;;6.10;91.20;;;;;;5030771;28;20500;-73
2022/02/11 14:31:45;;;;;;;29.02;3.80;;;6.00;90.10;;;;;;5026384;28;20065;-73
2022/02/11 14:34:14;;;;;;;17.92;3.40;;;6.00;99.90;;;;;;5040185;28;20517;-73
2022/02/11 14:36:42;;;;;;;18.60;3.10;;;5.90;99.90;;;;;;5031014;28;20045;-73
2022/02/11 14:39:13;;;;;;;20.20;3.05;;;5.90;99.90;;;;;;5030487;28;20091;-73
2022/02/11 14:41:46;;;;;;;22.50;3.38;;;5.90;99.90;;;;;;5031206;28;20427;-73
2022/02/11 14:44:17;;;;;;;24.10;3.05;;;5.90;99.90;;;;;;5026358;28;20127;-73
2022/02/11 14:46:44;;;;;;;23.58;3.22;;;5.80;99.90;;;;;;5031195;28;20033;-73
2022/02/11 14:49:10;;;;;;;21.92;3.30;;;5.90;99.90;;;;;;5036867;28;20045;-73
2022/02/11 14:51:37;;;;;;;20.42;3.38;;;5.80;99.90;;;;;;5032283;28;20086;-73
2022/02/11 14:54:11;;;;;;;17.27;2.28;;;5.80;99.90;;;;;;5047003;28;20053;-73
2022/02/11 14:56:42;;;;;;;16.02;2.78;;;5.70;99.90;;;;;;5033737;28;20056;-73
2022/02/11 14:59:09;;;;;;;18.98;3.38;;;5.70;99.90;;;;;;5047659;28;20159;-73
2022/02/11 15:01:36;;;;;;;13.80;2.33;;;5.60;99.90;;;;;;5025534;28;20447;-74
2022/02/11 15:04:02;;;;;;;14.85;3.00;;;5.50;99.90;;;;;;5047827;28;20447;-73
2022/02/11 15:06:28;;;;;;;21.77;2.83;;;5.50;99.90;;;;;;5029668;28;20045;-73
2022/02/11 15:08:54;;;;;;;17.33;3.45;;;5.40;99.90;;;;;;5047841;28;20056;-73
2022/02/11 15:11:20;;;;;;;11.48;2.63;;;5.40;99.90;;;;;;5026557;28;20072;-73
2022/02/11 15:13:46;;;;;;;11.80;2.60;;;5.40;99.90;;;;;;5026953;28;20088;-73
2022/02/11 15:16:11;;;;;;;20.40;2.40;;;5.30;99.90;;;;;;5011301;28;20072;-73
2022/02/11 15:18:37;;;;;;;15.50;2.53;;;5.30;99.90;;;;;;5031105;28;20132;-73
2022/02/11 15:21:06;;;;;;;14.68;2.55;;;5.20;99.90;;;;;;5027941;28;20557;-73
2022/02/11 15:23:39;;;;;;;11.57;1.80;;;5.10;99.90;;;;;;5026018;28;20049;-73
2022/02/11 15:26:07;;;;;;;17.92;2.00;;;5.00;99.90;;;;;;5024810;28;20407;-73
2022/02/11 15:28:35;;;;;;;12.55;2.03;;;5.00;99.90;;;;;;5017492;28;20099;-73
2022/02/11 15:31:02;;;;;;;13.15;2.17;;;4.90;99.90;;;;;;5029242;28;20576;-73
2022/02/11 15:33:28;;;;;;;16.23;2.53;;;4.80;99.90;;;;;;5022324;28;20072;-73
2022/02/11 15:35:54;;;;;;;12.93;2.30;;;4.90;99.90;;;;;;5015392;28;20487;-73
2022/02/11 15:38:20;;;;;;;13.93;2.38;;;4.90;99.90;;;;;;5031565;28;20044;-73
2022/02/11 15:40:48;;;;;;;22.33;2.03;;;4.80;99.90;;;;;;5028919;28;20053;-73
2022/02/11 15:43:14;;;;;;;13.20;1.83;;;4.80;99.90;;;;;;5030058;28;20055;-73
2022/02/11 15:45:41;;;;;;;13.25;2.40;;;4.90;99.90;;;;;;5045144;28;20080;-73
2022/02/11 15:48:07;;;;;;;9.13;1.50;;;4.90;99.90;;;;;;5029540;28;20120;-73
2022/02/11 15:50:32;;;;;;;18.83;2.05;;;4.90;99.90;;;;;;5046497;28;20175;-73
2022/02/11 15:52:58;;;;;;;11.48;2.03;;;4.90;99.90;;;;;;5036965;28;20053;-73
2022/02/11 15:55:24;;;;;;;19.23;3.08;;;4.90;99.90;;;;;;5042626;28;20095;-73
2022/02/11 15:57:49;;;;;;;11.02;1.60;;;4.90;99.90;;;;;;5045315;28;20057;-74
2022/02/11 16:00:16;;;;;;;12.70;2.13;;;5.00;99.90;;;;;;5046284;28;20499;-73
2022/02/11 16:02:42;;;;;;;15.13;1.88;;;4.90;99.90;;;;;;5023488;28;20365;-73
2022/02/11 16:05:10;;;;;;;14.55;1.88;;;4.90;99.90;;;;;;5029646;28;20048;-73
2022/02/11 16:07:36;;;;;;;15.75;2.13;;;4.90;99.90;;;;;;5029631;28;20114;-73
2022/02/11 16:10:07;;;;;;;18.90;2.20;;;4.90;99.90;;;;;;5036669;28;20041;-73
2022/02/11 16:12:34;;;;;;;19.98;2.88;;;4.80;99.90;;;;;;5026938;28;20055;-73
2022/02/11 16:15:00;;;;;;;17.95;2.33;;;4.80;99.90;;;;;;5030940;28;20053;-73
2022/02/11 16:17:27;;;;;;;11.23;1.92;;;4.70;99.90;;;;;;5010074;28;20120;-73
2022/02/11 16:19:53;;;;;;;18.08;2.05;;;4.70;99.90;;;;;;5041460;28;20069;-73
2022/02/11 16:22:23;;;;;;;20.35;1.90;;;4.60;99.90;;;;;;5026104;28;20056;-73
2022/02/11 16:24:49;;;;;;;11.68;2.00;;;4.60;99.90;;;;;;5032066;28;20160;-73
2022/02/11 16:27:17;;;;;;;12.90;1.88;;;4.50;99.90;;;;;;5033595;28;20103;-73
2022/02/11 16:29:43;;;;;;;16.95;2.42;;;4.40;99.90;;;;;;5027504;28;20033;-73
2022/02/11 16:32:09;;;;;;;13.05;1.42;;;4.30;99.90;;;;;;5035952;28;20110;-74
2022/02/11 16:34:35;;;;;;;18.40;2.58;;;4.30;99.90;;;;;;5029900;28;20062;-73
2022/02/11 16:37:02;;;;;;;14.23;2.47;;;4.20;99.90;;;;;;5045818;28;20422;-73
2022/02/11 16:39:27;;;;;;;15.02;1.98;;;4.10;99.90;;;;;;5029796;28;20052;-73
2022/02/11 16:41:53;;;;;;;19.75;2.25;;;4.10;99.90;;;;;;5045643;28;20556;-73
2022/02/11 16:44:19;;;;;;;26.10;4.25;;;4.00;99.90;;;;;;5032089;28;20127;-73